createdAt,value
2022-09-30T00:01:39.812Z,6.63
2022-09-30T00:04:09.326Z,6.50
2022-09-30T00:06:37.335Z,5.60
2022-09-30T00:09:06.253Z,5.73
2022-09-30T00:11:38.669Z,4.83
2022-09-30T00:14:09.692Z,6.30
2022-09-30T00:16:38.806Z,4.13
2022-09-30T00:19:06.861Z,5.00
2022-09-30T00:21:35.110Z,5.13
2022-09-30T00:24:04.260Z,4.43
2022-09-30T00:26:33.297Z,5.70
2022-09-30T00:29:02.445Z,5.70
2022-09-30T00:31:34.719Z,5.43
2022-09-30T00:34:09.252Z,5.27
2022-09-30T00:36:39.827Z,6.57
2022-09-30T00:39:09.182Z,5.83
2022-09-30T00:41:37.594Z,6.10
2022-09-30T00:44:38.919Z,5.53
2022-09-30T00:47:41.486Z,5.80
2022-09-30T00:50:28.075Z,6.23
2022-09-30T00:53:01.673Z,5.60
2022-09-30T00:55:36.935Z,5.67
2022-09-30T00:58:08.988Z,5.90
2022-09-30T01:00:37.196Z,6.17
2022-09-30T01:03:08.303Z,5.07
2022-09-30T01:05:36.413Z,4.43
2022-09-30T01:08:07.536Z,6.83
2022-09-30T01:10:35.542Z,6.17
2022-09-30T01:13:03.733Z,5.50
2022-09-30T01:15:45.895Z,6.70
2022-09-30T01:18:24.273Z,4.70
2022-09-30T01:21:10.876Z,5.50
2022-09-30T01:24:09.461Z,6.17
2022-09-30T01:27:16.958Z,4.80
2022-09-30T01:30:14.664Z,4.07
2022-09-30T01:33:03.949Z,5.03
2022-09-30T01:35:43.281Z,5.47
2022-09-30T01:38:15.208Z,4.27
2022-09-30T01:40:50.400Z,4.80
2022-09-30T01:43:29.806Z,4.17
2022-09-30T01:46:02.376Z,5.27
2022-09-30T01:48:40.374Z,4.27
2022-09-30T01:51:14.573Z,4.73
2022-09-30T01:53:48.313Z,3.30
2022-09-30T01:56:21.806Z,5.60
2022-09-30T01:58:54.951Z,5.50
2022-09-30T02:01:31.716Z,5.33
2022-09-30T02:04:07.865Z,4.70
2022-09-30T02:06:39.515Z,8.80
2022-09-30T02:09:12.198Z,5.20
2022-09-30T02:11:42.256Z,3.73
2022-09-30T02:14:17.186Z,5.83
2022-09-30T02:16:49.797Z,3.87
2022-09-30T02:19:24.475Z,5.43
2022-09-30T02:21:57.962Z,3.73
2022-09-30T02:24:28.230Z,5.00
2022-09-30T02:26:59.944Z,4.97
2022-09-30T02:29:32.401Z,4.00
2022-09-30T02:32:15.458Z,4.47
2022-09-30T02:34:48.951Z,4.10
2022-09-30T02:37:20.353Z,5.60
2022-09-30T02:39:54.008Z,5.80
2022-09-30T02:42:27.439Z,5.67
2022-09-30T02:44:59.528Z,4.07
2022-09-30T02:47:34.156Z,3.73
2022-09-30T02:50:07.325Z,4.30
2022-09-30T02:52:46.141Z,5.07
2022-09-30T02:55:20.414Z,4.63
2022-09-30T02:57:59.560Z,4.83
2022-09-30T03:00:28.222Z,5.47
2022-09-30T03:03:00.244Z,5.00
2022-09-30T03:05:30.288Z,3.33
2022-09-30T03:07:58.431Z,5.00
2022-09-30T03:10:26.597Z,5.17
2022-09-30T03:13:21.350Z,4.90
2022-09-30T03:16:11.889Z,5.93
2022-09-30T03:19:05.293Z,4.57
2022-09-30T03:21:49.003Z,5.07
2022-09-30T03:24:30.610Z,5.07
2022-09-30T03:27:13.015Z,6.47
2022-09-30T03:29:48.527Z,6.00
2022-09-30T03:32:31.708Z,5.07
2022-09-30T03:35:05.679Z,4.27
2022-09-30T03:37:46.884Z,5.27
2022-09-30T03:40:22.149Z,5.13
2022-09-30T03:42:55.892Z,5.00
2022-09-30T03:45:30.515Z,3.77
2022-09-30T03:48:02.571Z,6.50
2022-09-30T03:50:32.245Z,11.13
2022-09-30T03:53:01.902Z,6.03
2022-09-30T03:55:31.627Z,4.97
2022-09-30T03:57:59.624Z,4.73
2022-09-30T04:00:27.722Z,6.60
2022-09-30T04:02:57.879Z,3.73
2022-09-30T04:05:26.118Z,4.30
2022-09-30T04:07:54.094Z,7.33
2022-09-30T04:10:23.544Z,5.90
2022-09-30T04:12:54.695Z,6.00
2022-09-30T04:15:22.697Z,4.83
2022-09-30T04:17:50.641Z,4.10
2022-09-30T04:20:18.623Z,6.13
2022-09-30T04:22:46.570Z,7.87
2022-09-30T04:25:14.609Z,5.53
2022-09-30T04:27:43.924Z,3.23
2022-09-30T04:30:12.640Z,5.33
2022-09-30T04:32:45.658Z,6.00
2022-09-30T04:35:13.901Z,4.93
2022-09-30T04:37:45.454Z,3.70
2022-09-30T04:40:14.818Z,5.03
2022-09-30T04:42:44.489Z,5.10
2022-09-30T04:45:13.531Z,5.33
2022-09-30T04:47:45.909Z,6.20
2022-09-30T04:50:14.068Z,4.50
2022-09-30T04:52:43.842Z,5.37
2022-09-30T04:55:12.569Z,5.13
2022-09-30T04:57:40.670Z,4.87
2022-09-30T05:00:12.078Z,4.00
2022-09-30T05:02:40.052Z,4.33
2022-09-30T05:05:09.146Z,7.30
2022-09-30T05:07:37.165Z,5.17
2022-09-30T05:10:05.889Z,7.20
2022-09-30T05:12:33.849Z,3.63
2022-09-30T05:15:01.822Z,6.17
2022-09-30T05:17:32.977Z,5.63
2022-09-30T05:20:01.274Z,5.50
2022-09-30T05:22:29.591Z,9.73
2022-09-30T05:24:57.727Z,5.70
2022-09-30T05:27:26.229Z,6.00
2022-09-30T05:29:54.165Z,4.83
2022-09-30T05:32:22.461Z,5.33
2022-09-30T05:34:51.888Z,10.60
2022-09-30T05:37:19.963Z,7.23
2022-09-30T05:39:48.082Z,4.30
2022-09-30T05:42:16.083Z,6.47
2022-09-30T05:44:44.102Z,7.20
2022-09-30T05:47:12.255Z,5.97
2022-09-30T05:49:41.779Z,4.67
2022-09-30T05:52:11.864Z,7.50
2022-09-30T05:54:40.289Z,4.80
2022-09-30T05:57:08.449Z,5.90
2022-09-30T05:59:37.700Z,5.50
2022-09-30T06:02:06.008Z,5.47
2022-09-30T06:04:34.068Z,8.23
2022-09-30T06:07:03.466Z,6.60
2022-09-30T06:09:35.329Z,7.83
2022-09-30T06:12:03.389Z,6.37
2022-09-30T06:14:31.368Z,7.13
2022-09-30T06:17:00.425Z,6.80
2022-09-30T06:19:30.270Z,7.13
2022-09-30T06:21:58.626Z,7.93
2022-09-30T06:24:26.934Z,4.60
2022-09-30T06:26:56.277Z,5.63
2022-09-30T06:29:24.405Z,6.57
2022-09-30T06:31:52.534Z,5.10
2022-09-30T06:34:20.553Z,6.33
2022-09-30T06:36:48.518Z,7.07
2022-09-30T06:39:16.503Z,6.87
2022-09-30T06:41:44.521Z,7.07
2022-09-30T06:44:14.285Z,5.93
2022-09-30T06:46:53.322Z,7.43
2022-09-30T06:49:22.514Z,6.50
2022-09-30T06:51:52.185Z,6.00
2022-09-30T06:54:21.071Z,8.40
2022-09-30T06:56:49.294Z,6.13
2022-09-30T06:59:18.619Z,6.83
2022-09-30T07:01:46.707Z,6.43
2022-09-30T07:04:15.100Z,9.33
2022-09-30T07:06:43.513Z,8.30
2022-09-30T07:09:12.321Z,7.43
2022-09-30T07:11:40.832Z,8.63
2022-09-30T07:14:10.245Z,6.27
2022-09-30T07:16:40.136Z,6.97
2022-09-30T07:19:11.088Z,10.00
2022-09-30T07:21:39.181Z,4.93
2022-09-30T07:24:07.228Z,6.50
2022-09-30T07:26:36.088Z,16.15
2022-09-30T07:29:04.232Z,4.95
2022-09-30T07:31:35.071Z,5.88
2022-09-30T07:34:07.710Z,6.53
2022-09-30T07:36:37.842Z,7.88
2022-09-30T07:39:08.408Z,7.40
2022-09-30T07:41:39.440Z,5.32
2022-09-30T07:44:10.029Z,6.03
2022-09-30T07:46:40.300Z,6.35
2022-09-30T07:49:14.803Z,5.43
2022-09-30T07:51:45.423Z,8.88
2022-09-30T07:54:16.002Z,6.00
2022-09-30T07:57:09.225Z,6.78
2022-09-30T07:59:34.607Z,6.20
2022-09-30T08:02:03.301Z,5.60
2022-09-30T08:04:32.938Z,5.05
2022-09-30T08:07:02.801Z,3.83
2022-09-30T08:09:32.289Z,7.07
2022-09-30T08:12:00.374Z,5.07
2022-09-30T08:14:29.347Z,7.28
2022-09-30T08:16:58.532Z,3.83
2022-09-30T08:19:27.956Z,5.55
2022-09-30T08:21:57.906Z,6.72
2022-09-30T08:24:27.430Z,4.05
2022-09-30T08:26:56.345Z,5.00
2022-09-30T08:30:19.411Z,3.72
2022-09-30T08:32:12.868Z,8.00
2022-09-30T08:34:40.976Z,6.10
2022-09-30T08:37:11.115Z,4.88
2022-09-30T08:39:39.558Z,2.83
2022-09-30T08:42:50.316Z,2.92
2022-09-30T08:45:27.936Z,3.67
2022-09-30T08:48:06.745Z,3.20
2022-09-30T08:50:48.943Z,5.43
2022-09-30T08:53:25.045Z,3.63
2022-09-30T08:55:58.015Z,3.85
2022-09-30T08:58:29.597Z,3.05
2022-09-30T09:01:02.315Z,3.22
2022-09-30T09:03:34.008Z,3.22
2022-09-30T09:06:12.268Z,3.20
2022-09-30T09:09:04.055Z,3.55
2022-09-30T09:11:53.542Z,4.47
2022-09-30T09:14:39.328Z,3.03
2022-09-30T09:17:20.185Z,3.15
2022-09-30T09:19:57.137Z,4.00
2022-09-30T09:22:26.955Z,4.47
2022-09-30T09:24:57.576Z,4.07
2022-09-30T09:30:07.624Z,3.53
2022-09-30T09:32:36.606Z,3.58
2022-09-30T09:35:14.901Z,4.35
2022-09-30T09:38:08.623Z,3.80
2022-09-30T09:40:45.308Z,4.53
2022-09-30T09:43:23.789Z,3.95
2022-09-30T09:46:01.511Z,4.40
2022-09-30T09:48:30.732Z,4.13
2022-09-30T09:51:05.724Z,4.68
2022-09-30T09:53:45.800Z,5.78
2022-09-30T09:56:19.557Z,5.97
2022-09-30T09:59:11.085Z,5.00
2022-09-30T10:01:41.550Z,4.45
2022-09-30T10:04:22.075Z,6.78
2022-09-30T10:06:54.061Z,4.00
2022-09-30T10:09:34.281Z,6.60
2022-09-30T10:12:28.444Z,5.18
2022-09-30T10:15:03.188Z,4.47
2022-09-30T10:17:33.509Z,6.60
2022-09-30T10:20:06.919Z,3.28
2022-09-30T10:22:36.775Z,3.47
2022-09-30T10:25:25.813Z,3.83
2022-09-30T10:27:58.330Z,3.33
2022-09-30T10:30:46.683Z,3.58
2022-09-30T10:33:22.405Z,3.67
2022-09-30T10:35:57.204Z,3.72
2022-09-30T10:38:29.291Z,2.90
2022-09-30T10:40:57.956Z,2.58
2022-09-30T10:43:31.116Z,5.68
2022-09-30T10:46:24.408Z,3.05
2022-09-30T10:48:54.845Z,3.65
2022-09-30T10:51:27.261Z,3.22
2022-09-30T10:53:56.529Z,3.20
2022-09-30T10:56:44.047Z,2.38
2022-09-30T10:59:22.280Z,2.88
2022-09-30T11:01:58.094Z,3.78
2022-09-30T11:04:33.342Z,2.80
2022-09-30T11:07:14.487Z,3.45
2022-09-30T11:09:51.163Z,3.72
2022-09-30T11:12:25.855Z,3.58
2022-09-30T11:15:03.627Z,2.78
2022-09-30T11:17:38.052Z,3.95
2022-09-30T11:20:16.919Z,2.75
2022-09-30T11:22:53.864Z,3.65
2022-09-30T11:25:28.138Z,3.65
2022-09-30T11:28:13.156Z,4.88
2022-09-30T11:30:53.561Z,2.80
2022-09-30T11:33:39.635Z,2.30
2022-09-30T11:36:18.091Z,2.75
2022-09-30T11:39:08.944Z,2.47
2022-09-30T11:41:39.742Z,3.08
2022-09-30T11:44:18.591Z,3.47
2022-09-30T11:47:02.493Z,2.22
2022-09-30T11:49:58.879Z,2.92
2022-09-30T11:52:36.056Z,2.38
2022-09-30T11:55:22.125Z,2.95
2022-09-30T11:57:57.482Z,3.88
2022-09-30T12:00:25.692Z,1.90
2022-09-30T12:03:01.477Z,1.95
2022-09-30T12:05:34.179Z,1.88
2022-09-30T12:08:06.063Z,4.57
2022-09-30T12:10:38.321Z,2.83
2022-09-30T12:13:12.356Z,1.90
2022-09-30T12:15:42.325Z,3.50
2022-09-30T12:18:15.631Z,1.75
2022-09-30T12:20:46.160Z,2.60
2022-09-30T12:23:21.706Z,1.73
2022-09-30T12:25:54.765Z,1.55
2022-09-30T12:28:47.994Z,1.73
2022-09-30T12:31:52.718Z,1.73
2022-09-30T12:34:39.404Z,2.33
2022-09-30T12:37:31.077Z,2.22
2022-09-30T12:40:27.596Z,3.10
2022-09-30T12:43:17.747Z,1.70
2022-09-30T12:46:22.777Z,3.65
2022-09-30T12:48:55.895Z,1.60
2022-09-30T12:51:28.395Z,1.98
2022-09-30T12:54:04.517Z,4.10
2022-09-30T12:56:34.567Z,1.38
2022-09-30T12:59:03.877Z,2.33
2022-09-30T13:01:36.300Z,2.70
2022-09-30T13:04:31.860Z,3.05
2022-09-30T13:10:30.516Z,1.95
2022-09-30T13:13:23.869Z,1.75
2022-09-30T13:15:52.436Z,1.88
2022-09-30T13:18:58.055Z,2.13
2022-09-30T13:21:26.717Z,2.28
2022-09-30T13:23:57.586Z,1.80
2022-09-30T13:26:40.833Z,3.97
2022-09-30T13:29:29.597Z,3.63
2022-09-30T13:32:04.492Z,1.42
2022-09-30T13:34:34.299Z,1.85
2022-09-30T13:37:03.675Z,2.85
2022-09-30T13:39:46.290Z,1.60
2022-09-30T13:42:24.373Z,1.88
2022-09-30T13:45:03.037Z,1.25
2022-09-30T13:47:34.833Z,1.67
2022-09-30T13:50:14.686Z,1.73
2022-09-30T13:52:44.288Z,7.45
2022-09-30T13:55:36.306Z,1.02
2022-09-30T13:58:23.242Z,1.83
2022-09-30T14:00:59.587Z,2.47
2022-09-30T14:03:52.313Z,2.88
2022-09-30T14:06:35.898Z,2.88
2022-09-30T14:09:24.346Z,2.05
2022-09-30T14:12:14.556Z,1.67
2022-09-30T14:15:08.552Z,1.50
2022-09-30T14:17:59.503Z,2.25
2022-09-30T14:20:40.236Z,4.88
2022-09-30T14:23:14.893Z,1.40
2022-09-30T14:25:52.871Z,3.75
2022-09-30T14:28:36.413Z,1.65
2022-09-30T14:31:13.241Z,1.80
2022-09-30T14:33:43.175Z,1.50
2022-09-30T14:36:15.920Z,1.40
2022-09-30T14:38:48.365Z,1.52
2022-09-30T14:41:20.862Z,1.73
2022-09-30T14:43:52.839Z,3.92
2022-09-30T14:46:31.201Z,1.60
2022-09-30T14:49:04.520Z,1.77
2022-09-30T14:51:38.032Z,1.30
2022-09-30T14:54:06.315Z,2.13
2022-09-30T14:56:36.674Z,1.73
2022-09-30T14:59:18.202Z,1.10
2022-09-30T15:01:49.357Z,1.50
2022-09-30T15:04:20.847Z,2.28
2022-09-30T15:06:51.566Z,1.17
2022-09-30T15:09:24.125Z,1.30
2022-09-30T15:11:52.425Z,1.05
2022-09-30T15:14:23.675Z,0.80
2022-09-30T15:16:54.383Z,1.63
2022-09-30T15:19:27.439Z,1.00
2022-09-30T15:21:57.744Z,2.20
2022-09-30T15:24:27.488Z,1.13
2022-09-30T15:26:57.158Z,1.13
2022-09-30T15:29:26.773Z,1.17
2022-09-30T15:32:01.107Z,11.20
2022-09-30T15:34:30.479Z,5.15
2022-09-30T15:37:06.382Z,1.10
2022-09-30T15:39:55.653Z,1.00
2022-09-30T15:42:35.295Z,0.90
2022-09-30T15:45:06.890Z,1.48
2022-09-30T15:47:39.338Z,0.77
2022-09-30T15:50:30.270Z,0.77
2022-09-30T15:53:05.268Z,0.80
2022-09-30T15:55:41.733Z,1.02
2022-09-30T15:58:37.578Z,1.77
2022-09-30T16:01:21.476Z,0.73
2022-09-30T16:03:54.740Z,0.60
2022-09-30T16:06:27.178Z,0.88
2022-09-30T16:09:01.130Z,0.60
2022-09-30T16:11:32.107Z,0.88
2022-09-30T16:14:01.251Z,0.95
2022-09-30T16:16:33.443Z,0.77
2022-09-30T16:19:03.492Z,0.75
2022-09-30T16:21:44.237Z,1.38
2022-09-30T16:24:49.614Z,0.70
2022-09-30T16:27:30.223Z,0.80
2022-09-30T16:29:59.120Z,1.00
2022-09-30T16:32:40.896Z,1.48
2022-09-30T16:35:17.690Z,0.95
2022-09-30T16:37:45.684Z,0.55
2022-09-30T16:40:25.417Z,1.00
2022-09-30T16:42:55.885Z,1.17
2022-09-30T16:45:24.368Z,2.20
2022-09-30T16:47:54.088Z,1.65
2022-09-30T16:50:36.074Z,1.00
2022-09-30T16:53:04.150Z,0.80
2022-09-30T16:55:32.461Z,0.90
2022-09-30T16:58:00.678Z,5.10
2022-09-30T17:00:29.991Z,4.07
2022-09-30T17:02:59.638Z,1.08
2022-09-30T17:05:28.223Z,0.88
2022-09-30T17:07:58.997Z,0.82
2022-09-30T17:10:29.169Z,1.10
2022-09-30T17:13:00.397Z,0.73
2022-09-30T17:15:29.868Z,1.00
2022-09-30T17:17:59.872Z,1.00
2022-09-30T17:20:28.627Z,1.25
2022-09-30T17:22:56.627Z,0.85
2022-09-30T17:25:24.794Z,3.22
2022-09-30T17:27:52.990Z,1.10
2022-09-30T17:30:21.582Z,1.23
2022-09-30T17:32:50.101Z,1.38
2022-09-30T17:35:19.946Z,1.20
2022-09-30T17:37:48.096Z,1.67
2022-09-30T17:40:34.099Z,1.92
2022-09-30T17:43:14.431Z,1.17
2022-09-30T17:45:44.089Z,2.55
2022-09-30T17:48:13.822Z,1.98
2022-09-30T17:50:46.392Z,1.60
2022-09-30T17:53:17.038Z,1.52
2022-09-30T17:55:47.732Z,1.95
2022-09-30T17:58:17.511Z,1.40
2022-09-30T18:00:46.841Z,1.50
2022-09-30T18:03:15.125Z,1.70
2022-09-30T18:05:45.561Z,2.25
2022-09-30T18:08:13.853Z,1.20
2022-09-30T18:10:41.995Z,1.42
2022-09-30T18:13:11.632Z,1.70
2022-09-30T18:15:39.957Z,2.10
2022-09-30T18:18:08.163Z,2.03
2022-09-30T18:20:36.175Z,3.55
2022-09-30T18:23:05.637Z,1.75
2022-09-30T18:25:34.665Z,2.35
2022-09-30T18:28:03.011Z,1.67
2022-09-30T18:30:31.169Z,1.67
2022-09-30T18:32:59.553Z,1.73
2022-09-30T18:35:27.836Z,1.60
2022-09-30T18:37:58.997Z,1.80
2022-09-30T18:40:30.283Z,1.70
2022-09-30T18:43:02.285Z,2.08
2022-09-30T18:45:32.013Z,2.35
2022-09-30T18:48:01.764Z,1.80
2022-09-30T18:50:31.289Z,2.13
2022-09-30T18:53:04.610Z,1.65
2022-09-30T18:55:38.405Z,3.60
2022-09-30T18:58:07.168Z,2.78
2022-09-30T19:00:35.518Z,1.63
2022-09-30T19:03:03.977Z,1.77
2022-09-30T19:05:32.517Z,1.60
2022-09-30T19:08:00.943Z,2.28
2022-09-30T19:10:29.274Z,4.82
2022-09-30T19:13:00.093Z,2.78
2022-09-30T19:15:28.424Z,2.72
2022-09-30T19:17:56.975Z,4.00
2022-09-30T19:20:25.513Z,1.25
2022-09-30T19:22:54.065Z,1.23
2022-09-30T19:25:22.279Z,1.35
2022-09-30T19:27:51.434Z,1.88
2022-09-30T19:30:22.131Z,1.30
2022-09-30T19:32:56.784Z,2.13
2022-09-30T19:35:37.233Z,1.70
2022-09-30T19:38:08.532Z,1.95
2022-09-30T19:40:37.605Z,2.13
2022-09-30T19:43:08.252Z,1.40
2022-09-30T19:45:37.964Z,2.72
2022-09-30T19:48:07.331Z,2.67
2022-09-30T19:50:36.928Z,1.75
2022-09-30T19:53:05.633Z,1.70
2022-09-30T19:55:45.920Z,2.10
2022-09-30T19:58:17.782Z,1.95
2022-09-30T20:00:54.819Z,2.20
2022-09-30T20:03:24.392Z,2.25
2022-09-30T20:06:02.107Z,1.88
2022-09-30T20:08:31.068Z,1.70
2022-09-30T20:11:07.111Z,2.20
2022-09-30T20:13:35.931Z,2.20
2022-09-30T20:16:06.605Z,1.60
2022-09-30T20:18:35.820Z,1.88
2022-09-30T20:21:09.274Z,2.53
2022-09-30T20:23:38.986Z,1.38
2022-09-30T20:26:08.080Z,1.33
2022-09-30T20:28:36.741Z,1.20
2022-09-30T20:31:09.306Z,2.22
2022-09-30T20:33:39.198Z,1.48
2022-09-30T20:36:08.849Z,1.27
2022-09-30T20:38:37.056Z,8.48
2022-09-30T20:41:06.921Z,3.58
2022-09-30T20:43:35.579Z,1.50
2022-09-30T20:46:08.363Z,1.52
2022-09-30T20:48:39.313Z,3.50
2022-09-30T20:51:08.346Z,1.33
2022-09-30T20:53:39.755Z,1.90
2022-09-30T20:56:08.593Z,1.73
2022-09-30T20:58:37.433Z,2.47
2022-09-30T21:01:07.051Z,1.42
2022-09-30T21:03:36.213Z,1.00
2022-09-30T21:06:06.800Z,1.40
2022-09-30T21:08:38.901Z,1.33
2022-09-30T21:11:07.610Z,2.15
2022-09-30T21:13:38.197Z,1.00
2022-09-30T21:16:08.521Z,2.00
2022-09-30T21:18:36.724Z,1.15
2022-09-30T21:21:06.190Z,1.63
2022-09-30T21:23:35.601Z,1.20
2022-09-30T21:26:06.530Z,0.90
2022-09-30T21:28:34.731Z,1.27
2022-09-30T21:31:07.942Z,1.20
2022-09-30T21:33:36.833Z,2.10
2022-09-30T21:36:07.756Z,2.50
2022-09-30T21:38:35.751Z,1.30
2022-09-30T21:41:06.814Z,2.55
2022-09-30T21:43:36.710Z,1.20
2022-09-30T21:46:07.416Z,1.58
2022-09-30T21:48:36.421Z,1.05
2022-09-30T21:51:06.994Z,1.50
2022-09-30T21:53:35.537Z,14.38
2022-09-30T21:56:04.832Z,1.50
2022-09-30T21:58:34.109Z,1.40
2022-09-30T22:01:04.225Z,1.33
2022-09-30T22:03:37.537Z,2.00
2022-09-30T22:06:09.235Z,3.28
2022-09-30T22:08:40.357Z,3.67
2022-09-30T22:11:11.156Z,1.20
2022-09-30T22:13:40.708Z,4.00
2022-09-30T22:16:09.063Z,1.17
2022-09-30T22:18:37.248Z,1.85
2022-09-30T22:21:08.994Z,1.40
2022-09-30T22:23:37.291Z,4.03
2022-09-30T22:26:10.348Z,1.40
2022-09-30T22:28:39.235Z,1.83
2022-09-30T22:31:14.742Z,1.67
2022-09-30T22:34:00.592Z,1.70
2022-09-30T22:36:47.256Z,1.75
2022-09-30T22:39:15.304Z,1.40
2022-09-30T22:41:43.454Z,1.67
2022-09-30T22:44:11.726Z,1.58
2022-09-30T22:46:40.839Z,1.20
2022-09-30T22:49:08.885Z,2.70
2022-09-30T22:51:38.451Z,1.33
2022-09-30T22:54:06.431Z,1.98
2022-09-30T22:56:34.662Z,2.63
2022-09-30T22:59:02.646Z,3.03
2022-09-30T23:01:31.859Z,1.40
2022-09-30T23:04:00.446Z,2.90
2022-09-30T23:06:28.570Z,1.85
2022-09-30T23:08:57.946Z,1.45
2022-09-30T23:11:26.091Z,1.65
2022-09-30T23:13:58.855Z,1.48
2022-09-30T23:16:27.222Z,1.45
2022-09-30T23:18:55.954Z,1.23
2022-09-30T23:21:23.971Z,1.50
2022-09-30T23:23:52.350Z,1.13
2022-09-30T23:26:25.342Z,1.40
2022-09-30T23:28:57.037Z,2.95
2022-09-30T23:31:25.331Z,1.33
2022-09-30T23:33:54.694Z,1.20
2022-09-30T23:36:26.480Z,2.25
2022-09-30T23:38:54.935Z,1.23
2022-09-30T23:41:24.295Z,1.52
2022-09-30T23:43:52.247Z,2.28
2022-09-30T23:46:20.695Z,1.98
2022-09-30T23:48:48.709Z,1.40
2022-09-30T23:51:19.180Z,1.38
2022-09-30T23:53:47.693Z,2.30
2022-09-30T23:56:17.563Z,1.45
2022-09-30T23:58:47.877Z,1.00
